createdAt,value
2022-07-27T00:02:18.992Z,4180.5
2022-07-27T00:07:53.938Z,4180.8
2022-07-27T00:13:29.040Z,4179.1
2022-07-27T00:19:25.867Z,4175.9
2022-07-27T00:24:58.413Z,4176.4
2022-07-27T00:30:34.132Z,4177.6
2022-07-27T00:36:09.026Z,4177.3
2022-07-27T00:41:44.206Z,4175.3
2022-07-27T00:47:18.880Z,4175.8
2022-07-27T00:52:53.529Z,4178
2022-07-27T00:58:28.745Z,4175.9
2022-07-27T01:04:05.521Z,4174.4
2022-07-27T01:09:40.305Z,4176.4
2022-07-27T01:15:15.611Z,4176.1
2022-07-27T01:20:50.912Z,4174.1
2022-07-27T01:26:27.662Z,4174.8
2022-07-27T01:32:02.485Z,4173.1
2022-07-27T01:37:48.695Z,4171.8
2022-07-27T01:43:23.640Z,4172.4
2022-07-27T01:48:59.680Z,4174.3
2022-07-27T01:54:35.179Z,4172.1
2022-07-27T02:00:10.104Z,4175.6
2022-07-27T02:05:46.455Z,4174.6
2022-07-27T02:11:21.487Z,4173.1
2022-07-27T02:17:23.494Z,4171.6
2022-07-27T02:22:57.241Z,4172.3
2022-07-27T02:28:31.968Z,4172.4
2022-07-27T02:34:06.868Z,4172.3
2022-07-27T02:39:49.152Z,4167.1
2022-07-27T02:45:25.432Z,4170.9
2022-07-27T02:51:00.064Z,4170.7
2022-07-27T02:56:37.376Z,4169.4
2022-07-27T03:02:12.399Z,4168.2
2022-07-27T03:07:48.066Z,4166.9
2022-07-27T03:13:23.392Z,4169.6
2022-07-27T03:19:19.926Z,4164.6
2022-07-27T03:24:52.696Z,4168.7
2022-07-27T03:30:27.458Z,4170.2
2022-07-27T03:36:02.305Z,4168.2
2022-07-27T03:41:38.071Z,4167.2
2022-07-27T03:47:12.955Z,4167.7
2022-07-27T03:52:47.624Z,4166.1
2022-07-27T03:58:22.738Z,4166.7
2022-07-27T04:03:58.740Z,4166.6
2022-07-27T04:09:33.372Z,4163.2
2022-07-27T04:15:08.167Z,4165.1
2022-07-27T04:20:43.081Z,4165.4
2022-07-27T04:26:18.990Z,4167.4
2022-07-27T04:31:54.193Z,4162
2022-07-27T04:37:28.945Z,4162.2
2022-07-27T04:43:04.891Z,4164.9
2022-07-27T04:48:50.859Z,4165.1
2022-07-27T04:54:25.715Z,4162.9
2022-07-27T05:00:00.397Z,4161.5
2022-07-27T05:05:35.609Z,4162.5
2022-07-27T05:11:10.419Z,4162
2022-07-27T05:17:07.611Z,4161.7
2022-07-27T05:22:41.233Z,4162.9
2022-07-27T05:28:16.280Z,4163.4
2022-07-27T05:33:59.671Z,4164.6
2022-07-27T05:39:35.458Z,4166.7
2022-07-27T05:45:10.151Z,4168.6
2022-07-27T05:50:45.393Z,4172.6
2022-07-27T05:56:20.379Z,4171.6
2022-07-27T06:01:56.155Z,4169.2
2022-07-27T06:07:30.942Z,4170.8
2022-07-27T06:13:06.935Z,4175.9
2022-07-27T06:19:03.661Z,4173.4
2022-07-27T06:24:36.467Z,4179.6
2022-07-27T06:30:12.576Z,4181.3
2022-07-27T06:35:48.762Z,4182.8
2022-07-27T06:41:25.021Z,4191.9
2022-07-27T06:47:01.281Z,4189.2
2022-07-27T06:52:36.173Z,4189.7
2022-07-27T06:58:11.211Z,4196.7
2022-07-27T07:03:47.643Z,4202.6
2022-07-27T07:09:22.777Z,4194.4
2022-07-27T07:15:01.207Z,4198.1
2022-07-27T07:20:35.899Z,4207.4
2022-07-27T07:26:18.854Z,4220.3
2022-07-27T07:31:55.433Z,4211.5
2022-07-27T07:37:35.061Z,4202.1
2022-07-27T07:43:10.002Z,4211.3
2022-07-27T07:48:45.845Z,4209.3
2022-07-27T07:54:21.594Z,4201.6
2022-07-27T07:59:56.606Z,4211.8
2022-07-27T08:05:33.183Z,4214.1
2022-07-27T08:11:08.193Z,4225.2
2022-07-27T08:17:05.280Z,4212.5
2022-07-27T08:22:42.366Z,4224.5
2022-07-27T08:28:22.123Z,4224.2
2022-07-27T08:33:56.939Z,4215.5
2022-07-27T08:40:49.982Z,4209.1
2022-07-27T08:46:29.980Z,4217.5
2022-07-27T08:52:05.015Z,4225.9
2022-07-27T08:58:04.694Z,4222.5
2022-07-27T09:03:40.935Z,4227
2022-07-27T09:09:17.642Z,4228.2
2022-07-27T09:14:55.081Z,4227.4
2022-07-27T09:20:30.070Z,4228.4
2022-07-27T09:26:35.557Z,4227.4
2022-07-27T09:32:10.771Z,4222.7
2022-07-27T09:37:46.022Z,4215.5
2022-07-27T09:44:54.320Z,4223.2
2022-07-27T09:50:36.962Z,4232.2
2022-07-27T09:56:12.121Z,4229.4
2022-07-27T10:01:56.631Z,4226.2
2022-07-27T10:07:31.607Z,4227.7
2022-07-27T10:13:06.538Z,4227.2
2022-07-27T10:19:09.731Z,4227.9
2022-07-27T10:24:42.636Z,4216.3
2022-07-27T10:30:28.834Z,4221.8
2022-07-27T10:36:03.923Z,4221.8
2022-07-27T10:41:38.678Z,4224.4
2022-07-27T10:47:13.565Z,4232.9
2022-07-27T10:52:48.220Z,4222.8
2022-07-27T10:58:24.284Z,4220.7
2022-07-27T11:03:59.735Z,4221.7
2022-07-27T11:10:06.597Z,4227.5
2022-07-27T11:15:41.676Z,4226
2022-07-27T11:21:27.932Z,4225
2022-07-27T11:27:25.965Z,4219.7
2022-07-27T11:33:01.010Z,4214.3
2022-07-27T11:38:35.753Z,4225
2022-07-27T11:44:17.423Z,4217.8
2022-07-27T11:49:55.133Z,4230
2022-07-27T11:55:31.036Z,4218.5
2022-07-27T12:01:05.971Z,4227.5
2022-07-27T12:06:41.476Z,4221.5
2022-07-27T12:12:16.637Z,4221.3
2022-07-27T12:18:13.065Z,4226.9
2022-07-27T12:23:45.759Z,4228.7
2022-07-27T12:29:21.433Z,4221.7
2022-07-27T12:34:56.283Z,4226
2022-07-27T12:40:32.083Z,4227
2022-07-27T12:46:08.087Z,4228.2
2022-07-27T12:51:43.194Z,4217.3
2022-07-27T12:57:58.030Z,4222.3
2022-07-27T13:03:33.115Z,4215.6
2022-07-27T13:09:08.010Z,4214.3
2022-07-27T13:14:44.484Z,4221.3
2022-07-27T13:20:19.435Z,4231.1
2022-07-27T13:25:54.401Z,4215.8
2022-07-27T13:31:29.922Z,4215.3
2022-07-27T13:37:05.275Z,4221
2022-07-27T13:42:40.201Z,4214.3
2022-07-27T13:48:15.093Z,4215.5
2022-07-27T13:53:50.987Z,4227.7
2022-07-27T13:59:25.742Z,4224.7
2022-07-27T14:05:08.697Z,4223.3
2022-07-27T14:10:44.841Z,4226
2022-07-27T14:16:43.000Z,4225.9
2022-07-27T14:22:15.780Z,4221
2022-07-27T14:27:50.718Z,4213.8
2022-07-27T14:33:35.177Z,4217.3
2022-07-27T14:39:21.441Z,4217.3
2022-07-27T14:44:56.420Z,4224.9
2022-07-27T14:50:31.279Z,4224.2
2022-07-27T14:56:07.185Z,4230.4
2022-07-27T15:01:45.549Z,4221.7
2022-07-27T15:07:21.159Z,4212.6
2022-07-27T15:12:57.241Z,4227.7
2022-07-27T15:18:53.900Z,4222
2022-07-27T15:24:26.740Z,4223.5
2022-07-27T15:30:03.441Z,4224.2
2022-07-27T15:35:40.169Z,4228.7
2022-07-27T15:41:14.998Z,4216.3
2022-07-27T15:46:51.217Z,4222
2022-07-27T15:52:26.261Z,4221.8
2022-07-27T15:58:01.390Z,4223.7
2022-07-27T16:03:38.857Z,4223
2022-07-27T16:09:18.240Z,4220.7
2022-07-27T16:14:53.127Z,4222.3
2022-07-27T16:20:29.173Z,4228.2
2022-07-27T16:26:08.984Z,4218.5
2022-07-27T16:31:44.816Z,4227.2
2022-07-27T16:37:21.033Z,4229.9
2022-07-27T16:42:55.884Z,4220.8
2022-07-27T16:48:45.902Z,4218.5
2022-07-27T16:54:22.511Z,4227.2
2022-07-27T16:59:57.383Z,4228.4
2022-07-27T17:05:32.393Z,4222.7
2022-07-27T17:11:11.337Z,4205.1
2022-07-27T17:17:08.059Z,4206.1
2022-07-27T17:22:40.783Z,4210.6
2022-07-27T17:28:16.575Z,4209.3
2022-07-27T17:33:52.281Z,4207.9
2022-07-27T17:39:27.038Z,4205.6
2022-07-27T17:45:01.672Z,4206.6
2022-07-27T17:50:36.589Z,4207.1
2022-07-27T17:56:11.346Z,4205.3
2022-07-27T18:01:50.666Z,4205.6
2022-07-27T18:07:25.552Z,4203.7
2022-07-27T18:13:00.230Z,4205.3
2022-07-27T18:18:56.745Z,4202.7
2022-07-27T18:24:29.571Z,4203.4
2022-07-27T18:30:04.178Z,4203.1
2022-07-27T18:35:40.519Z,4203.1
2022-07-27T18:41:15.076Z,4202.7
2022-07-27T18:46:49.847Z,4202.4
2022-07-27T18:52:25.156Z,4203.2
2022-07-27T18:57:59.908Z,4199.9
2022-07-27T19:03:36.179Z,4200.4
2022-07-27T19:09:14.334Z,4199.9
2022-07-27T19:14:52.074Z,4201.6
2022-07-27T19:20:26.789Z,4198.6
2022-07-27T19:26:01.722Z,4199.2
2022-07-27T19:31:37.126Z,4199.6
2022-07-27T19:37:12.012Z,4200.4
2022-07-27T19:42:46.739Z,4199.7
2022-07-27T19:48:22.658Z,4200.1
2022-07-27T19:53:58.455Z,4198.4
2022-07-27T19:59:57.941Z,4198.6
2022-07-27T20:05:33.828Z,4198.9
2022-07-27T20:11:08.747Z,4196.7
2022-07-27T20:16:44.517Z,4198.6
2022-07-27T20:22:20.122Z,4197.4
2022-07-27T20:27:54.792Z,4196.7
2022-07-27T20:33:33.818Z,4197
2022-07-27T20:39:21.006Z,4196.5
2022-07-27T20:44:56.516Z,4193.9
2022-07-27T20:50:31.446Z,4195.4
2022-07-27T20:56:07.453Z,4196.5
2022-07-27T21:01:43.321Z,4194.2
2022-07-27T21:07:18.199Z,4195.2
2022-07-27T21:12:53.955Z,4194.9
2022-07-27T21:18:50.474Z,4189.7
2022-07-27T21:24:24.536Z,4193.2
2022-07-27T21:30:00.252Z,4191.2
2022-07-27T21:35:34.906Z,4193.7
2022-07-27T21:41:09.969Z,4190.7
2022-07-27T21:46:44.724Z,4191.7
2022-07-27T21:52:19.567Z,4189.3
2022-07-27T21:57:54.421Z,4193.4
2022-07-27T22:03:29.278Z,4189.8
2022-07-27T22:09:04.499Z,4189.3
2022-07-27T22:14:42.428Z,4191
2022-07-27T22:20:17.193Z,4189.2
2022-07-27T22:25:52.107Z,4193.7
2022-07-27T22:31:28.300Z,4191.9
2022-07-27T22:37:03.070Z,4189.2
2022-07-27T22:42:38.851Z,4189.2
2022-07-27T22:48:14.937Z,4192
2022-07-27T22:53:50.024Z,4190
2022-07-27T22:59:24.690Z,4189.7
2022-07-27T23:05:00.183Z,4188.8
2022-07-27T23:10:35.572Z,4190.5
2022-07-27T23:16:33.517Z,4183.5
2022-07-27T23:22:21.538Z,4187
2022-07-27T23:27:56.401Z,4185
2022-07-27T23:33:31.513Z,4183.5
2022-07-27T23:39:06.226Z,4182.8
2022-07-27T23:44:41.981Z,4188.8
2022-07-27T23:50:16.690Z,4184.7
2022-07-27T23:55:51.760Z,4185.8
